sensor_id;sensor_type;location;lat;lon;timestamp;temperature;humidity
18658;DHT22;9458;50.942;5.074;2023-02-01T00:01:40;6.80;99.90
18658;DHT22;9458;50.942;5.074;2023-02-01T00:04:12;6.80;99.90
18658;DHT22;9458;50.942;5.074;2023-02-01T00:06:40;6.80;99.90
18658;DHT22;9458;50.942;5.074;2023-02-01T00:09:09;6.90;99.90
18658;DHT22;9458;50.942;5.074;2023-02-01T00:11:38;6.80;99.90
18658;DHT22;9458;50.942;5.074;2023-02-01T00:14:06;6.90;99.90
18658;DHT22;9458;50.942;5.074;2023-02-01T00:16:35;6.90;99.90
18658;DHT22;9458;50.942;5.074;2023-02-01T00:19:05;6.90;99.90
18658;DHT22;9458;50.942;5.074;2023-02-01T00:21:34;6.90;99.90
18658;DHT22;9458;50.942;5.074;2023-02-01T00:24:02;6.90;99.90
18658;DHT22;9458;50.942;5.074;2023-02-01T00:26:33;6.90;99.90
18658;DHT22;9458;50.942;5.074;2023-02-01T00:29:07;6.90;99.90
18658;DHT22;9458;50.942;5.074;2023-02-01T00:31:36;6.90;99.90
18658;DHT22;9458;50.942;5.074;2023-02-01T00:34:04;6.90;99.90
18658;DHT22;9458;50.942;5.074;2023-02-01T00:36:33;6.90;99.90
18658;DHT22;9458;50.942;5.074;2023-02-01T00:39:01;6.90;99.90
18658;DHT22;9458;50.942;5.074;2023-02-01T00:41:29;6.90;99.90
18658;DHT22;9458;50.942;5.074;2023-02-01T00:43:57;6.90;99.90
18658;DHT22;9458;50.942;5.074;2023-02-01T00:46:27;6.90;99.90
18658;DHT22;9458;50.942;5.074;2023-02-01T00:48:55;6.90;99.90
18658;DHT22;9458;50.942;5.074;2023-02-01T00:51:25;6.90;99.90
18658;DHT22;9458;50.942;5.074;2023-02-01T00:53:53;7.00;99.90
18658;DHT22;9458;50.942;5.074;2023-02-01T00:56:23;6.90;99.90
18658;DHT22;9458;50.942;5.074;2023-02-01T00:58:53;6.90;99.90
18658;DHT22;9458;50.942;5.074;2023-02-01T01:01:26;6.90;99.90
18658;DHT22;9458;50.942;5.074;2023-02-01T01:03:58;6.90;99.90
18658;DHT22;9458;50.942;5.074;2023-02-01T01:06:28;6.90;99.90
18658;DHT22;9458;50.942;5.074;2023-02-01T01:08:58;6.90;99.90
18658;DHT22;9458;50.942;5.074;2023-02-01T01:11:30;6.90;99.90
18658;DHT22;9458;50.942;5.074;2023-02-01T01:13:59;6.90;99.90
18658;DHT22;9458;50.942;5.074;2023-02-01T01:16:32;6.90;99.90
18658;DHT22;9458;50.942;5.074;2023-02-01T01:19:05;6.90;99.90
18658;DHT22;9458;50.942;5.074;2023-02-01T01:21:35;6.90;99.90
18658;DHT22;9458;50.942;5.074;2023-02-01T01:24:05;6.90;99.90
18658;DHT22;9458;50.942;5.074;2023-02-01T01:26:36;6.80;99.90
18658;DHT22;9458;50.942;5.074;2023-02-01T01:29:08;6.80;99.90
18658;DHT22;9458;50.942;5.074;2023-02-01T01:31:40;6.80;99.90
18658;DHT22;9458;50.942;5.074;2023-02-01T01:34:10;6.70;99.90
18658;DHT22;9458;50.942;5.074;2023-02-01T01:36:40;6.80;99.90
18658;DHT22;9458;50.942;5.074;2023-02-01T01:39:10;6.70;99.90
18658;DHT22;9458;50.942;5.074;2023-02-01T01:41:47;6.70;99.90
18658;DHT22;9458;50.942;5.074;2023-02-01T01:44:58;6.80;99.90
18658;DHT22;9458;50.942;5.074;2023-02-01T01:47:39;6.80;99.90
18658;DHT22;9458;50.942;5.074;2023-02-01T01:50:10;6.80;99.90
18658;DHT22;9458;50.942;5.074;2023-02-01T01:52:41;6.90;99.90
18658;DHT22;9458;50.942;5.074;2023-02-01T01:55:15;6.90;99.90
18658;DHT22;9458;50.942;5.074;2023-02-01T01:57:50;6.90;99.90
18658;DHT22;9458;50.942;5.074;2023-02-01T02:00:21;6.90;99.90
18658;DHT22;9458;50.942;5.074;2023-02-01T02:02:53;6.90;99.90
18658;DHT22;9458;50.942;5.074;2023-02-01T02:05:22;6.90;99.90
18658;DHT22;9458;50.942;5.074;2023-02-01T02:07:51;7.00;99.90
18658;DHT22;9458;50.942;5.074;2023-02-01T02:10:20;6.90;99.90
18658;DHT22;9458;50.942;5.074;2023-02-01T02:13:09;7.00;99.90
18658;DHT22;9458;50.942;5.074;2023-02-01T02:15:50;7.00;99.90
18658;DHT22;9458;50.942;5.074;2023-02-01T02:18:30;7.00;99.90
18658;DHT22;9458;50.942;5.074;2023-02-01T02:21:12;7.00;99.90
18658;DHT22;9458;50.942;5.074;2023-02-01T02:26:51;7.00;99.90
18658;DHT22;9458;50.942;5.074;2023-02-01T02:29:44;7.00;99.90
18658;DHT22;9458;50.942;5.074;2023-02-01T02:32:43;7.00;99.90
18658;DHT22;9458;50.942;5.074;2023-02-01T02:35:19;7.00;99.90
18658;DHT22;9458;50.942;5.074;2023-02-01T02:37:54;7.00;99.90
18658;DHT22;9458;50.942;5.074;2023-02-01T02:40:31;7.00;99.90
18658;DHT22;9458;50.942;5.074;2023-02-01T02:43:05;6.90;99.90
18658;DHT22;9458;50.942;5.074;2023-02-01T02:45:57;6.90;99.90
18658;DHT22;9458;50.942;5.074;2023-02-01T02:49:00;6.90;99.90
18658;DHT22;9458;50.942;5.074;2023-02-01T02:51:35;6.90;99.90
18658;DHT22;9458;50.942;5.074;2023-02-01T02:54:25;6.80;99.90
18658;DHT22;9458;50.942;5.074;2023-02-01T02:57:16;6.80;99.90
18658;DHT22;9458;50.942;5.074;2023-02-01T03:00:06;6.70;99.90
18658;DHT22;9458;50.942;5.074;2023-02-01T03:03:03;6.70;99.90
18658;DHT22;9458;50.942;5.074;2023-02-01T03:05:49;6.60;99.90
18658;DHT22;9458;50.942;5.074;2023-02-01T03:08:21;6.60;99.90
18658;DHT22;9458;50.942;5.074;2023-02-01T03:10:53;6.60;99.90
18658;DHT22;9458;50.942;5.074;2023-02-01T03:13:28;6.60;99.90
18658;DHT22;9458;50.942;5.074;2023-02-01T03:16:01;6.50;99.90
18658;DHT22;9458;50.942;5.074;2023-02-01T03:18:39;6.50;99.90
18658;DHT22;9458;50.942;5.074;2023-02-01T03:21:13;6.50;99.90
18658;DHT22;9458;50.942;5.074;2023-02-01T03:23:45;6.50;99.90
18658;DHT22;9458;50.942;5.074;2023-02-01T03:26:17;6.40;99.90
18658;DHT22;9458;50.942;5.074;2023-02-01T03:28:51;6.40;99.90
18658;DHT22;9458;50.942;5.074;2023-02-01T03:31:20;6.40;99.90
18658;DHT22;9458;50.942;5.074;2023-02-01T03:33:48;6.50;99.90
18658;DHT22;9458;50.942;5.074;2023-02-01T03:36:22;6.50;99.90
18658;DHT22;9458;50.942;5.074;2023-02-01T03:39:00;6.50;99.90
18658;DHT22;9458;50.942;5.074;2023-02-01T03:41:35;6.50;99.90
18658;DHT22;9458;50.942;5.074;2023-02-01T03:44:11;6.50;99.90
18658;DHT22;9458;50.942;5.074;2023-02-01T03:46:43;6.50;99.90
18658;DHT22;9458;50.942;5.074;2023-02-01T03:49:18;6.50;99.90
18658;DHT22;9458;50.942;5.074;2023-02-01T03:51:49;6.50;99.90
18658;DHT22;9458;50.942;5.074;2023-02-01T03:54:20;6.40;99.90
18658;DHT22;9458;50.942;5.074;2023-02-01T03:56:50;6.40;99.90
18658;DHT22;9458;50.942;5.074;2023-02-01T03:59:18;6.40;99.90
18658;DHT22;9458;50.942;5.074;2023-02-01T04:01:46;6.40;99.90
18658;DHT22;9458;50.942;5.074;2023-02-01T04:04:14;6.40;99.90
18658;DHT22;9458;50.942;5.074;2023-02-01T04:06:46;6.40;99.90
18658;DHT22;9458;50.942;5.074;2023-02-01T04:09:15;6.40;99.90
18658;DHT22;9458;50.942;5.074;2023-02-01T04:11:45;6.30;99.90
18658;DHT22;9458;50.942;5.074;2023-02-01T04:14:16;6.30;99.90
18658;DHT22;9458;50.942;5.074;2023-02-01T04:16:44;6.30;99.90
18658;DHT22;9458;50.942;5.074;2023-02-01T04:19:14;6.30;99.90
18658;DHT22;9458;50.942;5.074;2023-02-01T04:21:42;6.30;99.90
18658;DHT22;9458;50.942;5.074;2023-02-01T04:24:10;6.30;99.90
18658;DHT22;9458;50.942;5.074;2023-02-01T04:26:39;6.20;99.90
18658;DHT22;9458;50.942;5.074;2023-02-01T04:29:12;6.20;99.90
18658;DHT22;9458;50.942;5.074;2023-02-01T04:31:41;6.20;99.90
18658;DHT22;9458;50.942;5.074;2023-02-01T04:34:09;6.20;99.90
18658;DHT22;9458;50.942;5.074;2023-02-01T04:36:37;6.20;99.90
18658;DHT22;9458;50.942;5.074;2023-02-01T04:39:05;6.20;99.90
18658;DHT22;9458;50.942;5.074;2023-02-01T04:41:32;6.20;99.90
18658;DHT22;9458;50.942;5.074;2023-02-01T04:44:00;6.10;99.90
18658;DHT22;9458;50.942;5.074;2023-02-01T04:46:30;6.20;99.90
18658;DHT22;9458;50.942;5.074;2023-02-01T04:48:58;6.20;99.90
18658;DHT22;9458;50.942;5.074;2023-02-01T04:51:25;6.10;99.90
18658;DHT22;9458;50.942;5.074;2023-02-01T04:53:53;6.10;99.90
18658;DHT22;9458;50.942;5.074;2023-02-01T04:56:25;6.20;99.90
18658;DHT22;9458;50.942;5.074;2023-02-01T04:58:52;6.10;99.90
18658;DHT22;9458;50.942;5.074;2023-02-01T05:01:22;6.10;99.90
18658;DHT22;9458;50.942;5.074;2023-02-01T05:03:51;6.10;99.90
18658;DHT22;9458;50.942;5.074;2023-02-01T05:06:19;6.10;99.90
18658;DHT22;9458;50.942;5.074;2023-02-01T05:08:47;6.10;99.90
18658;DHT22;9458;50.942;5.074;2023-02-01T05:11:15;6.10;99.90
18658;DHT22;9458;50.942;5.074;2023-02-01T05:13:56;6.10;99.90
18658;DHT22;9458;50.942;5.074;2023-02-01T05:16:24;6.10;99.90
18658;DHT22;9458;50.942;5.074;2023-02-01T05:18:54;6.10;99.90
18658;DHT22;9458;50.942;5.074;2023-02-01T05:21:22;6.10;99.90
18658;DHT22;9458;50.942;5.074;2023-02-01T05:23:50;6.10;99.90
18658;DHT22;9458;50.942;5.074;2023-02-01T05:26:36;6.00;99.90
18658;DHT22;9458;50.942;5.074;2023-02-01T05:29:04;6.00;99.90
18658;DHT22;9458;50.942;5.074;2023-02-01T05:31:32;6.00;99.90
18658;DHT22;9458;50.942;5.074;2023-02-01T05:34:03;6.10;99.90
18658;DHT22;9458;50.942;5.074;2023-02-01T05:36:32;6.10;99.90
18658;DHT22;9458;50.942;5.074;2023-02-01T05:39:00;6.10;99.90
18658;DHT22;9458;50.942;5.074;2023-02-01T05:41:28;6.10;99.90
18658;DHT22;9458;50.942;5.074;2023-02-01T05:43:56;6.00;99.90
18658;DHT22;9458;50.942;5.074;2023-02-01T05:46:24;6.00;99.90
18658;DHT22;9458;50.942;5.074;2023-02-01T05:48:51;6.00;99.90
18658;DHT22;9458;50.942;5.074;2023-02-01T05:51:21;6.00;99.90
18658;DHT22;9458;50.942;5.074;2023-02-01T05:53:50;6.00;99.90
18658;DHT22;9458;50.942;5.074;2023-02-01T05:56:18;6.00;99.90
18658;DHT22;9458;50.942;5.074;2023-02-01T05:58:46;6.00;99.90
18658;DHT22;9458;50.942;5.074;2023-02-01T06:01:14;6.00;99.90
18658;DHT22;9458;50.942;5.074;2023-02-01T06:03:41;6.00;99.90
18658;DHT22;9458;50.942;5.074;2023-02-01T06:06:09;5.90;99.90
18658;DHT22;9458;50.942;5.074;2023-02-01T06:08:38;5.90;99.90
18658;DHT22;9458;50.942;5.074;2023-02-01T06:11:07;5.90;99.90
18658;DHT22;9458;50.942;5.074;2023-02-01T06:13:35;5.90;99.90
18658;DHT22;9458;50.942;5.074;2023-02-01T06:16:05;5.80;99.90
18658;DHT22;9458;50.942;5.074;2023-02-01T06:18:33;5.90;99.90
18658;DHT22;9458;50.942;5.074;2023-02-01T06:21:01;5.90;99.90
18658;DHT22;9458;50.942;5.074;2023-02-01T06:23:30;5.90;99.90
18658;DHT22;9458;50.942;5.074;2023-02-01T06:26:01;5.90;99.90
18658;DHT22;9458;50.942;5.074;2023-02-01T06:28:30;5.90;99.90
18658;DHT22;9458;50.942;5.074;2023-02-01T06:30:58;5.90;99.90
18658;DHT22;9458;50.942;5.074;2023-02-01T06:33:34;5.90;99.90
18658;DHT22;9458;50.942;5.074;2023-02-01T06:36:04;5.90;99.90
18658;DHT22;9458;50.942;5.074;2023-02-01T06:38:32;5.90;99.90
18658;DHT22;9458;50.942;5.074;2023-02-01T06:41:03;5.90;99.90
18658;DHT22;9458;50.942;5.074;2023-02-01T06:43:31;5.80;99.90
18658;DHT22;9458;50.942;5.074;2023-02-01T06:46:01;5.80;99.90
18658;DHT22;9458;50.942;5.074;2023-02-01T06:48:30;5.80;99.90
18658;DHT22;9458;50.942;5.074;2023-02-01T06:50:59;5.80;99.90
18658;DHT22;9458;50.942;5.074;2023-02-01T06:53:26;5.80;99.90
18658;DHT22;9458;50.942;5.074;2023-02-01T06:55:56;5.80;99.90
18658;DHT22;9458;50.942;5.074;2023-02-01T06:58:28;5.80;99.90
18658;DHT22;9458;50.942;5.074;2023-02-01T07:00:56;5.80;99.90
18658;DHT22;9458;50.942;5.074;2023-02-01T07:03:34;5.80;99.90
18658;DHT22;9458;50.942;5.074;2023-02-01T07:06:03;5.80;99.90
18658;DHT22;9458;50.942;5.074;2023-02-01T07:08:34;5.80;99.90
18658;DHT22;9458;50.942;5.074;2023-02-01T07:11:10;5.80;99.90
18658;DHT22;9458;50.942;5.074;2023-02-01T07:13:51;5.80;99.90
18658;DHT22;9458;50.942;5.074;2023-02-01T07:16:20;5.70;99.90
18658;DHT22;9458;50.942;5.074;2023-02-01T07:18:48;5.80;99.90
18658;DHT22;9458;50.942;5.074;2023-02-01T07:21:16;5.80;99.90
18658;DHT22;9458;50.942;5.074;2023-02-01T07:23:45;5.80;99.90
18658;DHT22;9458;50.942;5.074;2023-02-01T07:26:13;5.80;99.90
18658;DHT22;9458;50.942;5.074;2023-02-01T07:28:42;5.80;99.90
18658;DHT22;9458;50.942;5.074;2023-02-01T07:31:13;5.90;99.90
18658;DHT22;9458;50.942;5.074;2023-02-01T07:33:41;5.90;99.90
18658;DHT22;9458;50.942;5.074;2023-02-01T07:36:13;5.90;99.90
18658;DHT22;9458;50.942;5.074;2023-02-01T07:38:41;5.90;99.90
18658;DHT22;9458;50.942;5.074;2023-02-01T07:41:10;5.90;99.90
18658;DHT22;9458;50.942;5.074;2023-02-01T07:43:38;6.00;99.90
18658;DHT22;9458;50.942;5.074;2023-02-01T07:46:06;6.00;99.90
18658;DHT22;9458;50.942;5.074;2023-02-01T07:48:37;6.00;99.90
18658;DHT22;9458;50.942;5.074;2023-02-01T07:51:07;6.10;99.90
18658;DHT22;9458;50.942;5.074;2023-02-01T07:53:35;6.20;99.90
18658;DHT22;9458;50.942;5.074;2023-02-01T07:56:08;6.20;99.90
18658;DHT22;9458;50.942;5.074;2023-02-01T07:58:37;6.20;99.90
18658;DHT22;9458;50.942;5.074;2023-02-01T08:01:05;6.30;99.90
18658;DHT22;9458;50.942;5.074;2023-02-01T08:04:01;6.30;99.90
18658;DHT22;9458;50.942;5.074;2023-02-01T08:06:49;6.40;99.90
18658;DHT22;9458;50.942;5.074;2023-02-01T08:09:28;6.50;99.90
18658;DHT22;9458;50.942;5.074;2023-02-01T08:11:59;6.60;99.90
18658;DHT22;9458;50.942;5.074;2023-02-01T08:14:29;6.70;99.90
18658;DHT22;9458;50.942;5.074;2023-02-01T08:17:18;6.90;99.90
18658;DHT22;9458;50.942;5.074;2023-02-01T08:20:10;6.90;99.90
18658;DHT22;9458;50.942;5.074;2023-02-01T08:22:45;7.10;99.90
18658;DHT22;9458;50.942;5.074;2023-02-01T08:25:22;7.10;99.90
18658;DHT22;9458;50.942;5.074;2023-02-01T08:27:55;7.30;99.90
18658;DHT22;9458;50.942;5.074;2023-02-01T08:30:24;7.40;99.90
18658;DHT22;9458;50.942;5.074;2023-02-01T08:32:53;7.50;99.90
18658;DHT22;9458;50.942;5.074;2023-02-01T08:35:24;7.50;99.90
18658;DHT22;9458;50.942;5.074;2023-02-01T08:37:52;7.40;99.90
18658;DHT22;9458;50.942;5.074;2023-02-01T08:40:20;7.30;99.90
18658;DHT22;9458;50.942;5.074;2023-02-01T08:42:49;7.30;99.90
18658;DHT22;9458;50.942;5.074;2023-02-01T08:45:22;7.20;99.90
18658;DHT22;9458;50.942;5.074;2023-02-01T08:47:56;7.20;99.90
18658;DHT22;9458;50.942;5.074;2023-02-01T08:50:29;7.10;99.90
18658;DHT22;9458;50.942;5.074;2023-02-01T08:53:07;7.10;99.90
18658;DHT22;9458;50.942;5.074;2023-02-01T08:55:43;7.00;99.90
18658;DHT22;9458;50.942;5.074;2023-02-01T08:58:14;7.00;99.90
18658;DHT22;9458;50.942;5.074;2023-02-01T09:00:47;7.10;99.90
18658;DHT22;9458;50.942;5.074;2023-02-01T09:03:18;7.20;99.90
18658;DHT22;9458;50.942;5.074;2023-02-01T09:05:59;7.10;99.90
18658;DHT22;9458;50.942;5.074;2023-02-01T09:08:30;7.20;99.90
18658;DHT22;9458;50.942;5.074;2023-02-01T09:11:04;7.30;99.90
18658;DHT22;9458;50.942;5.074;2023-02-01T09:13:43;7.30;99.90
18658;DHT22;9458;50.942;5.074;2023-02-01T09:16:27;7.30;99.90
18658;DHT22;9458;50.942;5.074;2023-02-01T09:18:58;7.40;99.90
18658;DHT22;9458;50.942;5.074;2023-02-01T09:21:31;7.30;99.90
18658;DHT22;9458;50.942;5.074;2023-02-01T09:23:59;7.50;99.90
18658;DHT22;9458;50.942;5.074;2023-02-01T09:26:27;7.50;99.90
18658;DHT22;9458;50.942;5.074;2023-02-01T09:28:55;7.50;99.90
18658;DHT22;9458;50.942;5.074;2023-02-01T09:31:23;7.60;99.90
18658;DHT22;9458;50.942;5.074;2023-02-01T09:33:50;7.60;99.90
18658;DHT22;9458;50.942;5.074;2023-02-01T09:36:18;7.90;99.90
18658;DHT22;9458;50.942;5.074;2023-02-01T09:38:48;8.10;99.90
18658;DHT22;9458;50.942;5.074;2023-02-01T09:41:30;8.20;99.90
18658;DHT22;9458;50.942;5.074;2023-02-01T09:44:09;8.30;99.90
18658;DHT22;9458;50.942;5.074;2023-02-01T09:46:37;8.30;99.90
18658;DHT22;9458;50.942;5.074;2023-02-01T09:49:12;8.40;99.90
18658;DHT22;9458;50.942;5.074;2023-02-01T09:51:45;8.30;99.90
18658;DHT22;9458;50.942;5.074;2023-02-01T09:54:19;8.30;99.90
18658;DHT22;9458;50.942;5.074;2023-02-01T09:56:49;8.30;99.90
18658;DHT22;9458;50.942;5.074;2023-02-01T09:59:28;8.30;99.90
18658;DHT22;9458;50.942;5.074;2023-02-01T10:01:58;8.40;99.90
18658;DHT22;9458;50.942;5.074;2023-02-01T10:04:27;8.40;99.90
18658;DHT22;9458;50.942;5.074;2023-02-01T10:07:08;8.40;99.90
18658;DHT22;9458;50.942;5.074;2023-02-01T10:09:47;8.40;99.90
18658;DHT22;9458;50.942;5.074;2023-02-01T10:12:41;8.40;99.90
18658;DHT22;9458;50.942;5.074;2023-02-01T10:15:34;8.40;99.90
18658;DHT22;9458;50.942;5.074;2023-02-01T10:18:14;8.40;99.90
18658;DHT22;9458;50.942;5.074;2023-02-01T10:20:56;8.40;99.90
18658;DHT22;9458;50.942;5.074;2023-02-01T10:23:41;8.40;99.90
18658;DHT22;9458;50.942;5.074;2023-02-01T10:26:19;8.30;99.90
18658;DHT22;9458;50.942;5.074;2023-02-01T10:28:50;8.30;99.90
18658;DHT22;9458;50.942;5.074;2023-02-01T10:31:22;8.30;99.90
18658;DHT22;9458;50.942;5.074;2023-02-01T10:33:52;8.30;99.90
18658;DHT22;9458;50.942;5.074;2023-02-01T10:36:29;8.40;99.90
18658;DHT22;9458;50.942;5.074;2023-02-01T10:38:59;8.40;99.90
18658;DHT22;9458;50.942;5.074;2023-02-01T10:41:32;8.40;99.90
18658;DHT22;9458;50.942;5.074;2023-02-01T10:44:03;8.40;99.90
18658;DHT22;9458;50.942;5.074;2023-02-01T10:46:33;8.40;99.90
18658;DHT22;9458;50.942;5.074;2023-02-01T10:49:04;8.40;99.90
18658;DHT22;9458;50.942;5.074;2023-02-01T10:51:42;8.40;99.90
18658;DHT22;9458;50.942;5.074;2023-02-01T10:54:14;8.50;99.90
18658;DHT22;9458;50.942;5.074;2023-02-01T10:56:45;8.50;99.90
18658;DHT22;9458;50.942;5.074;2023-02-01T10:59:18;8.50;99.90
18658;DHT22;9458;50.942;5.074;2023-02-01T11:02:05;8.50;99.90
18658;DHT22;9458;50.942;5.074;2023-02-01T11:05:00;8.60;99.90
18658;DHT22;9458;50.942;5.074;2023-02-01T11:07:31;8.60;99.90
18658;DHT22;9458;50.942;5.074;2023-02-01T11:10:04;8.60;99.90
18658;DHT22;9458;50.942;5.074;2023-02-01T11:12:41;8.70;99.90
18658;DHT22;9458;50.942;5.074;2023-02-01T11:15:17;8.70;99.90
18658;DHT22;9458;50.942;5.074;2023-02-01T11:17:47;8.70;99.90
18658;DHT22;9458;50.942;5.074;2023-02-01T11:20:19;8.70;99.90
18658;DHT22;9458;50.942;5.074;2023-02-01T11:22:52;8.70;99.90
18658;DHT22;9458;50.942;5.074;2023-02-01T11:25:20;8.70;99.90
18658;DHT22;9458;50.942;5.074;2023-02-01T11:27:53;8.80;99.90
18658;DHT22;9458;50.942;5.074;2023-02-01T11:30:27;8.80;99.90
18658;DHT22;9458;50.942;5.074;2023-02-01T11:33:18;8.80;99.90
18658;DHT22;9458;50.942;5.074;2023-02-01T11:35:47;8.80;99.90
18658;DHT22;9458;50.942;5.074;2023-02-01T11:38:22;8.90;99.90
18658;DHT22;9458;50.942;5.074;2023-02-01T11:41:30;8.90;99.90
18658;DHT22;9458;50.942;5.074;2023-02-01T11:44:01;9.00;99.90
18658;DHT22;9458;50.942;5.074;2023-02-01T11:46:31;9.00;99.90
18658;DHT22;9458;50.942;5.074;2023-02-01T11:49:19;9.00;99.90
18658;DHT22;9458;50.942;5.074;2023-02-01T11:52:03;9.10;99.90
18658;DHT22;9458;50.942;5.074;2023-02-01T11:54:49;9.10;99.90
18658;DHT22;9458;50.942;5.074;2023-02-01T11:57:37;9.30;99.90
18658;DHT22;9458;50.942;5.074;2023-02-01T12:00:34;9.30;99.90
18658;DHT22;9458;50.942;5.074;2023-02-01T12:03:20;9.40;99.90
18658;DHT22;9458;50.942;5.074;2023-02-01T12:05:57;9.40;99.90
18658;DHT22;9458;50.942;5.074;2023-02-01T12:11:33;9.50;99.90
18658;DHT22;9458;50.942;5.074;2023-02-01T12:14:14;9.50;99.90
18658;DHT22;9458;50.942;5.074;2023-02-01T12:16:56;9.50;99.90
18658;DHT22;9458;50.942;5.074;2023-02-01T12:19:41;9.60;99.90
18658;DHT22;9458;50.942;5.074;2023-02-01T12:22:22;9.60;99.90
18658;DHT22;9458;50.942;5.074;2023-02-01T12:25:13;9.60;99.90
18658;DHT22;9458;50.942;5.074;2023-02-01T12:28:10;9.70;99.90
18658;DHT22;9458;50.942;5.074;2023-02-01T12:30:57;9.90;99.90
18658;DHT22;9458;50.942;5.074;2023-02-01T12:33:40;9.90;99.90
18658;DHT22;9458;50.942;5.074;2023-02-01T12:36:14;9.80;99.90
18658;DHT22;9458;50.942;5.074;2023-02-01T12:38:53;9.70;99.90
18658;DHT22;9458;50.942;5.074;2023-02-01T12:41:41;9.70;99.90
18658;DHT22;9458;50.942;5.074;2023-02-01T12:44:20;9.60;99.90
18658;DHT22;9458;50.942;5.074;2023-02-01T12:46:53;9.50;99.90
18658;DHT22;9458;50.942;5.074;2023-02-01T12:49:28;9.40;99.90
18658;DHT22;9458;50.942;5.074;2023-02-01T12:52:01;9.40;99.90
18658;DHT22;9458;50.942;5.074;2023-02-01T12:54:34;9.40;99.90
18658;DHT22;9458;50.942;5.074;2023-02-01T12:57:06;9.40;99.90
18658;DHT22;9458;50.942;5.074;2023-02-01T12:59:39;9.40;99.90
18658;DHT22;9458;50.942;5.074;2023-02-01T13:02:15;9.30;99.90
18658;DHT22;9458;50.942;5.074;2023-02-01T13:04:53;9.30;99.90
18658;DHT22;9458;50.942;5.074;2023-02-01T13:07:28;9.20;99.90
18658;DHT22;9458;50.942;5.074;2023-02-01T13:10:01;9.30;99.90
18658;DHT22;9458;50.942;5.074;2023-02-01T13:12:36;9.20;99.90
18658;DHT22;9458;50.942;5.074;2023-02-01T13:15:10;9.10;99.90
18658;DHT22;9458;50.942;5.074;2023-02-01T13:17:41;9.10;99.90
18658;DHT22;9458;50.942;5.074;2023-02-01T13:20:21;9.10;99.90
18658;DHT22;9458;50.942;5.074;2023-02-01T13:22:54;9.10;99.90
18658;DHT22;9458;50.942;5.074;2023-02-01T13:25:29;9.10;99.90
18658;DHT22;9458;50.942;5.074;2023-02-01T13:28:11;9.10;99.90
18658;DHT22;9458;50.942;5.074;2023-02-01T13:31:14;9.10;99.90
18658;DHT22;9458;50.942;5.074;2023-02-01T13:34:01;9.20;99.90
18658;DHT22;9458;50.942;5.074;2023-02-01T13:36:48;9.20;99.90
18658;DHT22;9458;50.942;5.074;2023-02-01T13:39:39;9.10;99.90
18658;DHT22;9458;50.942;5.074;2023-02-01T13:42:16;9.10;99.90
18658;DHT22;9458;50.942;5.074;2023-02-01T13:44:47;9.10;99.90
18658;DHT22;9458;50.942;5.074;2023-02-01T13:47:26;9.10;99.90
18658;DHT22;9458;50.942;5.074;2023-02-01T13:49:56;9.10;99.90
18658;DHT22;9458;50.942;5.074;2023-02-01T13:52:42;9.10;99.90
18658;DHT22;9458;50.942;5.074;2023-02-01T13:58:05;9.10;99.90
18658;DHT22;9458;50.942;5.074;2023-02-01T14:00:34;9.20;99.90
18658;DHT22;9458;50.942;5.074;2023-02-01T14:03:13;9.20;99.90
18658;DHT22;9458;50.942;5.074;2023-02-01T14:06:01;9.20;99.90
18658;DHT22;9458;50.942;5.074;2023-02-01T14:08:42;9.20;99.90
18658;DHT22;9458;50.942;5.074;2023-02-01T14:11:33;9.20;99.90
18658;DHT22;9458;50.942;5.074;2023-02-01T14:17:35;9.20;99.90
18658;DHT22;9458;50.942;5.074;2023-02-01T14:23:19;9.20;99.90
18658;DHT22;9458;50.942;5.074;2023-02-01T14:26:11;9.20;99.90
18658;DHT22;9458;50.942;5.074;2023-02-01T14:28:51;9.20;99.90
18658;DHT22;9458;50.942;5.074;2023-02-01T14:31:44;9.20;99.90
18658;DHT22;9458;50.942;5.074;2023-02-01T14:34:20;9.20;99.90
18658;DHT22;9458;50.942;5.074;2023-02-01T14:36:56;9.20;99.90
18658;DHT22;9458;50.942;5.074;2023-02-01T14:39:31;9.10;99.90
18658;DHT22;9458;50.942;5.074;2023-02-01T14:42:05;9.10;99.90
18658;DHT22;9458;50.942;5.074;2023-02-01T14:44:38;9.10;99.90
18658;DHT22;9458;50.942;5.074;2023-02-01T14:47:32;9.10;99.90
18658;DHT22;9458;50.942;5.074;2023-02-01T14:50:17;9.10;99.90
18658;DHT22;9458;50.942;5.074;2023-02-01T14:52:49;9.10;99.90
18658;DHT22;9458;50.942;5.074;2023-02-01T14:55:25;9.10;99.90
18658;DHT22;9458;50.942;5.074;2023-02-01T14:58:16;9.10;99.90
18658;DHT22;9458;50.942;5.074;2023-02-01T15:00:50;9.10;99.90
18658;DHT22;9458;50.942;5.074;2023-02-01T15:03:41;9.10;99.90
18658;DHT22;9458;50.942;5.074;2023-02-01T15:06:24;9.10;99.90
18658;DHT22;9458;50.942;5.074;2023-02-01T15:08:55;9.10;99.90
18658;DHT22;9458;50.942;5.074;2023-02-01T15:11:24;9.10;99.90
18658;DHT22;9458;50.942;5.074;2023-02-01T15:13:54;9.00;99.90
18658;DHT22;9458;50.942;5.074;2023-02-01T15:16:25;9.00;99.90
18658;DHT22;9458;50.942;5.074;2023-02-01T15:19:21;9.10;99.90
18658;DHT22;9458;50.942;5.074;2023-02-01T15:21:52;9.00;99.90
18658;DHT22;9458;50.942;5.074;2023-02-01T15:24:22;9.00;99.90
18658;DHT22;9458;50.942;5.074;2023-02-01T15:26:51;9.00;99.90
18658;DHT22;9458;50.942;5.074;2023-02-01T15:29:22;9.00;99.90
18658;DHT22;9458;50.942;5.074;2023-02-01T15:31:52;9.00;99.90
18658;DHT22;9458;50.942;5.074;2023-02-01T15:34:20;9.00;99.90
18658;DHT22;9458;50.942;5.074;2023-02-01T15:36:49;9.00;99.90
18658;DHT22;9458;50.942;5.074;2023-02-01T15:39:19;9.00;99.90
18658;DHT22;9458;50.942;5.074;2023-02-01T15:41:51;9.00;99.90
18658;DHT22;9458;50.942;5.074;2023-02-01T15:44:38;9.00;99.90
18658;DHT22;9458;50.942;5.074;2023-02-01T15:47:12;9.00;99.90
18658;DHT22;9458;50.942;5.074;2023-02-01T15:49:45;9.00;99.90
18658;DHT22;9458;50.942;5.074;2023-02-01T15:52:24;9.00;99.90
18658;DHT22;9458;50.942;5.074;2023-02-01T15:54:56;9.00;99.90
18658;DHT22;9458;50.942;5.074;2023-02-01T15:57:26;9.00;99.90
18658;DHT22;9458;50.942;5.074;2023-02-01T16:00:01;9.00;99.90
18658;DHT22;9458;50.942;5.074;2023-02-01T16:02:36;9.00;99.90
18658;DHT22;9458;50.942;5.074;2023-02-01T16:05:25;8.90;99.90
18658;DHT22;9458;50.942;5.074;2023-02-01T16:08:01;8.90;99.90
18658;DHT22;9458;50.942;5.074;2023-02-01T16:10:31;8.90;99.90
18658;DHT22;9458;50.942;5.074;2023-02-01T16:13:06;8.90;99.90
18658;DHT22;9458;50.942;5.074;2023-02-01T16:15:36;8.90;99.90
18658;DHT22;9458;50.942;5.074;2023-02-01T16:18:04;8.90;99.90
18658;DHT22;9458;50.942;5.074;2023-02-01T16:20:36;8.90;99.90
18658;DHT22;9458;50.942;5.074;2023-02-01T16:23:05;8.90;99.90
18658;DHT22;9458;50.942;5.074;2023-02-01T16:25:33;8.80;99.90
18658;DHT22;9458;50.942;5.074;2023-02-01T16:28:02;8.80;99.90
18658;DHT22;9458;50.942;5.074;2023-02-01T16:39:32;8.80;99.90
18658;DHT22;9458;50.942;5.074;2023-02-01T16:41:19;8.80;99.90
18658;DHT22;9458;50.942;5.074;2023-02-01T16:43:52;8.80;99.90
18658;DHT22;9458;50.942;5.074;2023-02-01T16:46:23;8.80;99.90
18658;DHT22;9458;50.942;5.074;2023-02-01T16:48:54;8.70;99.90
18658;DHT22;9458;50.942;5.074;2023-02-01T16:51:29;8.80;99.90
18658;DHT22;9458;50.942;5.074;2023-02-01T16:53:58;8.80;99.90
18658;DHT22;9458;50.942;5.074;2023-02-01T16:56:30;8.70;99.90
18658;DHT22;9458;50.942;5.074;2023-02-01T16:58:59;8.80;99.90
18658;DHT22;9458;50.942;5.074;2023-02-01T17:01:27;8.70;99.90
18658;DHT22;9458;50.942;5.074;2023-02-01T17:03:56;8.70;99.90
18658;DHT22;9458;50.942;5.074;2023-02-01T17:06:25;8.70;99.90
18658;DHT22;9458;50.942;5.074;2023-02-01T17:08:56;8.70;99.90
18658;DHT22;9458;50.942;5.074;2023-02-01T17:11:25;8.80;99.90